createdAt,value
2024-05-09T00:00:05.018Z,94
2024-05-09T00:01:01.919Z,94
2024-05-09T00:02:01.736Z,93
2024-05-09T00:03:02.619Z,94
2024-05-09T00:04:03.120Z,94
2024-05-09T00:05:02.467Z,92
2024-05-09T00:06:02.652Z,95
2024-05-09T00:07:01.831Z,92
2024-05-09T00:08:02.012Z,94
2024-05-09T00:09:02.245Z,93
2024-05-09T00:10:03.141Z,93
2024-05-09T00:11:01.953Z,94
2024-05-09T00:12:03.312Z,94
2024-05-09T00:13:02.336Z,93
2024-05-09T00:14:02.259Z,94
2024-05-09T00:15:02.087Z,91
2024-05-09T00:16:02.060Z,94
2024-05-09T00:18:03.113Z,93
2024-05-09T00:19:02.014Z,92
2024-05-09T00:20:02.704Z,92
2024-05-09T00:21:01.952Z,93
2024-05-09T00:22:02.041Z,93
2024-05-09T00:23:02.258Z,97
2024-05-09T00:24:02.007Z,98
2024-05-09T00:25:02.063Z,97
2024-05-09T00:26:02.134Z,97
2024-05-09T00:27:01.962Z,96
2024-05-09T00:28:01.941Z,95
2024-05-09T00:29:02.760Z,94
2024-05-09T00:30:01.522Z,95
2024-05-09T00:31:03.242Z,95
2024-05-09T00:33:03.005Z,95
2024-05-09T00:34:02.449Z,97
2024-05-09T00:35:02.098Z,98
2024-05-09T00:36:01.911Z,100
2024-05-09T00:37:02.184Z,100
2024-05-09T00:38:03.966Z,100
2024-05-09T00:39:02.322Z,99
2024-05-09T00:40:02.166Z,96
2024-05-09T00:41:02.162Z,99
2024-05-09T00:42:02.358Z,100
2024-05-09T00:43:02.496Z,100
2024-05-09T00:44:02.270Z,100
2024-05-09T00:45:02.345Z,100
2024-05-09T00:46:02.457Z,100
2024-05-09T00:47:02.581Z,100
2024-05-09T00:48:03.230Z,100
2024-05-09T00:49:01.872Z,100
2024-05-09T00:50:04.284Z,98
2024-05-09T00:51:01.821Z,100
2024-05-09T00:52:01.826Z,100
2024-05-09T00:53:01.750Z,100
2024-05-09T00:54:01.806Z,100
2024-05-09T00:55:01.754Z,100
2024-05-09T00:56:03.060Z,100
2024-05-09T00:57:01.789Z,100
2024-05-09T00:58:01.651Z,100
2024-05-09T00:59:01.651Z,100
2024-05-09T01:00:02.299Z,100
2024-05-09T01:01:02.750Z,100
2024-05-09T01:03:03.810Z,100
2024-05-09T01:04:02.074Z,100
2024-05-09T01:05:02.888Z,100
2024-05-09T01:06:01.974Z,100
2024-05-09T01:07:02.510Z,100
2024-05-09T01:08:02.448Z,100
2024-05-09T01:09:01.915Z,100
2024-05-09T01:10:01.534Z,100
2024-05-09T01:11:02.291Z,100
2024-05-09T01:12:02.764Z,100
2024-05-09T01:13:01.863Z,100
2024-05-09T01:14:02.509Z,100
2024-05-09T01:15:02.226Z,100
2024-05-09T01:16:02.537Z,100
2024-05-09T01:18:02.881Z,100
2024-05-09T01:19:02.141Z,100
2024-05-09T01:20:02.114Z,100
2024-05-09T01:21:02.424Z,100
2024-05-09T01:22:03.820Z,100
2024-05-09T01:23:01.672Z,100
2024-05-09T01:24:02.580Z,100
2024-05-09T01:25:01.413Z,100
2024-05-09T01:26:02.469Z,100
2024-05-09T01:27:02.223Z,100
2024-05-09T01:28:02.575Z,100
2024-05-09T01:29:02.488Z,100
2024-05-09T01:30:06.903Z,100
2024-05-09T01:31:01.559Z,100
2024-05-09T01:32:01.841Z,100
2024-05-09T01:33:03.949Z,100
2024-05-09T01:34:02.606Z,100
2024-05-09T01:35:02.318Z,100
2024-05-09T01:36:02.662Z,100
2024-05-09T01:37:02.339Z,100
2024-05-09T01:38:02.684Z,100
2024-05-09T01:39:02.233Z,100
2024-05-09T01:40:01.899Z,100
2024-05-09T01:41:02.693Z,100
2024-05-09T01:42:01.504Z,100
2024-05-09T01:43:02.025Z,100
2024-05-09T01:44:01.837Z,100
2024-05-09T01:45:02.603Z,100
2024-05-09T01:46:02.352Z,100
2024-05-09T01:47:02.393Z,100
2024-05-09T01:48:03.726Z,100
2024-05-09T01:49:02.617Z,100
2024-05-09T01:50:02.713Z,100
2024-05-09T01:51:01.771Z,100
2024-05-09T01:52:02.327Z,100
2024-05-09T01:53:02.147Z,100
2024-05-09T01:54:01.909Z,100
2024-05-09T01:55:07.033Z,100
2024-05-09T01:56:01.890Z,100
2024-05-09T01:57:02.007Z,100
2024-05-09T01:58:01.720Z,100
2024-05-09T01:59:02.004Z,100
2024-05-09T02:00:02.019Z,100
2024-05-09T02:01:02.337Z,100
2024-05-09T02:03:02.753Z,100
2024-05-09T02:04:03.066Z,100
2024-05-09T02:05:02.462Z,100
2024-05-09T02:06:02.102Z,100
2024-05-09T02:07:02.054Z,100
2024-05-09T02:08:01.774Z,100
2024-05-09T02:09:02.058Z,100
2024-05-09T02:10:02.022Z,100
2024-05-09T02:11:01.809Z,100
2024-05-09T02:12:02.427Z,100
2024-05-09T02:13:01.512Z,100
2024-05-09T02:14:03.078Z,100
2024-05-09T02:15:02.267Z,100
2024-05-09T02:16:02.629Z,100
2024-05-09T02:17:02.609Z,100
2024-05-09T02:18:02.954Z,100
2024-05-09T02:19:02.235Z,100
2024-05-09T02:20:02.685Z,100
2024-05-09T02:21:01.829Z,100
2024-05-09T02:22:02.444Z,100
2024-05-09T02:23:02.377Z,100
2024-05-09T02:24:02.618Z,100
2024-05-09T02:25:02.391Z,100
2024-05-09T02:26:02.690Z,100
2024-05-09T02:27:01.452Z,100
2024-05-09T02:28:02.832Z,100
2024-05-09T02:29:01.823Z,100
2024-05-09T02:30:01.642Z,100
2024-05-09T02:31:01.680Z,100
2024-05-09T02:32:02.012Z,100
2024-05-09T02:33:02.682Z,100
2024-05-09T02:34:03.661Z,100
2024-05-09T02:35:02.231Z,100
2024-05-09T02:36:02.217Z,100
2024-05-09T02:37:02.580Z,100
2024-05-09T02:38:02.498Z,100
2024-05-09T02:39:02.812Z,100
2024-05-09T02:40:01.533Z,100
2024-05-09T02:41:02.175Z,100
2024-05-09T02:42:01.939Z,100
2024-05-09T02:43:01.940Z,100
2024-05-09T02:44:01.825Z,100
2024-05-09T02:45:01.652Z,100
2024-05-09T02:46:02.965Z,100
2024-05-09T02:48:03.507Z,100
2024-05-09T02:49:02.000Z,100
2024-05-09T02:50:03.037Z,100
2024-05-09T02:51:01.716Z,100
2024-05-09T02:52:01.728Z,100
2024-05-09T02:53:01.728Z,100
2024-05-09T02:54:01.932Z,100
2024-05-09T02:55:01.605Z,100
2024-05-09T02:56:02.459Z,100
2024-05-09T02:57:02.399Z,100
2024-05-09T02:58:02.550Z,100
2024-05-09T02:59:02.398Z,100
2024-05-09T03:00:02.598Z,100
2024-05-09T03:01:01.659Z,100
2024-05-09T03:02:02.329Z,100
2024-05-09T03:03:03.054Z,100
2024-05-09T03:04:02.409Z,100
2024-05-09T03:05:01.469Z,100
2024-05-09T03:06:02.905Z,100
2024-05-09T03:07:01.771Z,100
2024-05-09T03:08:02.505Z,100
2024-05-09T03:09:02.480Z,100
2024-05-09T03:10:02.224Z,100
2024-05-09T03:11:02.134Z,100
2024-05-09T03:12:02.056Z,100
2024-05-09T03:13:02.265Z,100
2024-05-09T03:14:02.156Z,100
2024-05-09T03:15:01.970Z,100
2024-05-09T03:16:01.827Z,100
2024-05-09T03:17:01.922Z,100
2024-05-09T03:18:02.911Z,100
2024-05-09T03:19:01.650Z,100
2024-05-09T03:20:02.233Z,100
2024-05-09T03:21:01.758Z,100
2024-05-09T03:22:01.958Z,100
2024-05-09T03:23:01.745Z,100
2024-05-09T03:24:01.802Z,100
2024-05-09T03:25:01.635Z,100
2024-05-09T03:26:02.635Z,100
2024-05-09T03:27:02.373Z,100
2024-05-09T03:28:02.485Z,100
2024-05-09T03:29:03.425Z,100
2024-05-09T03:30:02.868Z,100
2024-05-09T03:31:02.091Z,100
2024-05-09T03:32:03.810Z,100
2024-05-09T03:33:01.962Z,100
2024-05-09T03:34:03.557Z,100
2024-05-09T03:35:01.749Z,100
2024-05-09T03:36:07.586Z,100
2024-05-09T03:37:01.841Z,100
2024-05-09T03:38:01.686Z,100
2024-05-09T03:39:01.503Z,100
2024-05-09T03:40:04.203Z,100
2024-05-09T03:41:02.012Z,100
2024-05-09T03:42:01.749Z,100
2024-05-09T03:43:02.231Z,100
2024-05-09T03:44:02.032Z,100
2024-05-09T03:45:01.958Z,100
2024-05-09T03:46:01.780Z,100
2024-05-09T03:47:01.868Z,100
2024-05-09T03:48:02.857Z,100
2024-05-09T03:49:02.208Z,100
2024-05-09T03:50:03.321Z,100
2024-05-09T03:51:01.546Z,100
2024-05-09T03:52:02.560Z,100
2024-05-09T03:53:02.605Z,100
2024-05-09T03:54:02.565Z,100
2024-05-09T03:55:01.449Z,100
2024-05-09T03:56:02.752Z,100
2024-05-09T03:57:02.454Z,100
2024-05-09T03:58:02.374Z,100
2024-05-09T03:59:02.202Z,100
2024-05-09T04:00:09.683Z,100
2024-05-09T04:01:02.465Z,100
2024-05-09T04:02:02.439Z,100
2024-05-09T04:03:03.547Z,100
2024-05-09T04:04:02.173Z,100
2024-05-09T04:05:02.711Z,100
2024-05-09T04:06:01.449Z,100
2024-05-09T04:07:01.697Z,100
2024-05-09T04:08:03.058Z,100
2024-05-09T04:09:01.948Z,100
2024-05-09T04:10:01.762Z,100
2024-05-09T04:11:02.021Z,100
2024-05-09T04:12:02.417Z,100
2024-05-09T04:13:03.965Z,100
2024-05-09T04:14:02.293Z,100
2024-05-09T04:15:02.448Z,100
2024-05-09T04:16:02.087Z,100
2024-05-09T04:17:02.050Z,100
2024-05-09T04:18:03.280Z,100
2024-05-09T04:19:01.727Z,100
2024-05-09T04:20:01.875Z,100
2024-05-09T04:21:02.257Z,100
2024-05-09T04:22:02.427Z,100
2024-05-09T04:23:02.137Z,100
2024-05-09T04:24:02.005Z,100
2024-05-09T04:25:02.118Z,100
2024-05-09T04:26:02.416Z,100
2024-05-09T04:27:02.220Z,100
2024-05-09T04:28:02.518Z,100
2024-05-09T04:29:02.378Z,100
2024-05-09T04:30:02.218Z,100
2024-05-09T04:31:03.075Z,100
2024-05-09T04:33:02.786Z,100
2024-05-09T04:34:03.079Z,100
2024-05-09T04:35:02.450Z,100
2024-05-09T04:36:03.066Z,100
2024-05-09T04:37:01.838Z,100
2024-05-09T04:38:01.886Z,100
2024-05-09T04:39:01.688Z,100
2024-05-09T04:40:03.065Z,100
2024-05-09T04:41:02.227Z,100
2024-05-09T04:42:02.132Z,100
2024-05-09T04:43:02.036Z,100
2024-05-09T04:44:02.123Z,100
2024-05-09T04:45:02.231Z,100
2024-05-09T04:46:01.929Z,100
2024-05-09T04:47:01.966Z,100
2024-05-09T04:48:03.480Z,100
2024-05-09T04:49:02.012Z,100
2024-05-09T04:50:02.092Z,100
2024-05-09T04:51:03.024Z,100
2024-05-09T04:52:02.086Z,100
2024-05-09T04:53:02.332Z,100
2024-05-09T04:54:02.044Z,100
2024-05-09T04:55:02.086Z,100
2024-05-09T04:56:02.038Z,100
2024-05-09T04:57:01.743Z,100
2024-05-09T04:58:02.609Z,100
2024-05-09T04:59:02.604Z,100
2024-05-09T05:00:11.524Z,100
2024-05-09T05:01:02.353Z,100
2024-05-09T05:02:02.588Z,100
2024-05-09T05:03:02.947Z,100
2024-05-09T05:04:02.485Z,100
2024-05-09T05:05:02.844Z,100
2024-05-09T05:06:02.084Z,100
2024-05-09T05:07:03.310Z,100
2024-05-09T05:08:02.112Z,100
2024-05-09T05:09:02.518Z,100
2024-05-09T05:10:05.714Z,100
2024-05-09T05:11:02.338Z,100
2024-05-09T05:12:02.496Z,100
2024-05-09T05:13:01.470Z,100
2024-05-09T05:14:02.362Z,100
2024-05-09T05:15:02.436Z,100
2024-05-09T05:16:02.087Z,100
2024-05-09T05:17:02.322Z,100
2024-05-09T05:18:02.718Z,100
2024-05-09T05:19:01.855Z,100
2024-05-09T05:20:03.488Z,100
2024-05-09T05:21:02.520Z,100
2024-05-09T05:22:02.227Z,100
2024-05-09T05:23:02.373Z,100
2024-05-09T05:24:02.160Z,100
2024-05-09T05:25:02.322Z,100
2024-05-09T05:26:02.733Z,100
2024-05-09T05:27:01.502Z,100
2024-05-09T05:28:02.870Z,100
2024-05-09T05:29:01.665Z,100
2024-05-09T05:30:01.508Z,100
2024-05-09T05:31:01.513Z,100
2024-05-09T05:32:02.050Z,100
2024-05-09T05:33:02.947Z,100
2024-05-09T05:34:01.964Z,100
2024-05-09T05:35:02.064Z,100
2024-05-09T05:36:02.072Z,100
2024-05-09T05:37:01.913Z,100
2024-05-09T05:38:02.109Z,100
2024-05-09T05:39:02.624Z,100
2024-05-09T05:40:03.232Z,100
2024-05-09T05:41:02.015Z,100
2024-05-09T05:42:01.877Z,98
2024-05-09T05:43:01.886Z,99
2024-05-09T05:44:01.743Z,98
2024-05-09T05:45:01.588Z,100
2024-05-09T05:46:02.698Z,97
2024-05-09T05:48:02.512Z,97
2024-05-09T05:49:01.838Z,96
2024-05-09T05:50:02.263Z,95
2024-05-09T05:51:04.951Z,93
2024-05-09T05:52:01.731Z,94
2024-05-09T05:53:02.781Z,94
2024-05-09T05:54:01.863Z,94
2024-05-09T05:55:02.341Z,97
2024-05-09T05:56:02.372Z,95
2024-05-09T05:57:02.178Z,92
2024-05-09T05:58:03.010Z,92
2024-05-09T05:59:01.902Z,92
2024-05-09T06:00:09.688Z,93
2024-05-09T06:01:01.601Z,92
2024-05-09T06:02:01.952Z,91
2024-05-09T06:03:03.124Z,95
2024-05-09T06:04:02.096Z,93
2024-05-09T06:05:02.903Z,91
2024-05-09T06:06:01.962Z,91
2024-05-09T06:07:02.025Z,92
2024-05-09T06:08:01.879Z,94
2024-05-09T06:09:01.810Z,90
2024-05-09T06:10:01.490Z,93
2024-05-09T06:11:02.255Z,92
2024-05-09T06:12:03.076Z,93
2024-05-09T06:13:02.128Z,90
2024-05-09T06:14:02.121Z,88
2024-05-09T06:15:01.914Z,87
2024-05-09T06:16:01.667Z,89
2024-05-09T06:17:01.917Z,89
2024-05-09T06:18:02.745Z,90
2024-05-09T06:19:01.776Z,87
2024-05-09T06:20:02.226Z,84
2024-05-09T06:21:02.412Z,89
2024-05-09T06:22:02.255Z,89
2024-05-09T06:23:02.632Z,86
2024-05-09T06:24:06.583Z,87
2024-05-09T06:25:02.406Z,84
2024-05-09T06:26:02.251Z,84
2024-05-09T06:27:02.779Z,82
2024-05-09T06:28:01.673Z,84
2024-05-09T06:29:01.827Z,79
2024-05-09T06:30:01.597Z,76
2024-05-09T06:31:01.840Z,76
2024-05-09T06:32:02.768Z,81
2024-05-09T06:33:02.033Z,80
2024-05-09T06:34:02.772Z,80
2024-05-09T06:35:01.816Z,80
2024-05-09T06:36:02.175Z,80
2024-05-09T06:37:01.811Z,78
2024-05-09T06:38:03.230Z,82
2024-05-09T06:39:02.223Z,82
2024-05-09T06:40:02.294Z,80
2024-05-09T06:41:02.262Z,78
2024-05-09T06:42:02.277Z,79
2024-05-09T06:43:02.027Z,80
2024-05-09T06:44:02.012Z,78
2024-05-09T06:45:02.084Z,77
2024-05-09T06:46:01.724Z,78
2024-05-09T06:47:01.650Z,76
2024-05-09T06:48:01.884Z,76
2024-05-09T06:49:02.507Z,76
2024-05-09T06:50:01.588Z,78
2024-05-09T06:51:01.910Z,78
2024-05-09T06:52:01.690Z,79
2024-05-09T06:53:02.887Z,79
2024-05-09T06:54:01.696Z,74
2024-05-09T06:55:01.871Z,72
2024-05-09T06:56:01.596Z,68
2024-05-09T06:57:01.823Z,70
2024-05-09T06:58:01.519Z,69
2024-05-09T06:59:01.843Z,68
2024-05-09T07:00:04.999Z,68
2024-05-09T07:01:01.965Z,68
2024-05-09T07:03:06.234Z,69
2024-05-09T07:04:02.574Z,66
2024-05-09T07:05:02.018Z,69
2024-05-09T07:06:02.905Z,67
2024-05-09T07:07:01.943Z,65
2024-05-09T07:08:01.761Z,65
2024-05-09T07:09:01.621Z,66
2024-05-09T07:10:03.055Z,68
2024-05-09T07:11:01.985Z,66
2024-05-09T07:12:02.404Z,62
2024-05-09T07:13:02.803Z,64
2024-05-09T07:14:01.620Z,62
2024-05-09T07:15:01.674Z,62
2024-05-09T07:16:02.578Z,62
2024-05-09T07:17:02.654Z,62
2024-05-09T07:18:02.438Z,63
2024-05-09T07:19:01.903Z,62
2024-05-09T07:20:02.307Z,61
2024-05-09T07:21:02.471Z,62
2024-05-09T07:22:02.266Z,62
2024-05-09T07:23:03.006Z,61
2024-05-09T07:24:02.028Z,64
2024-05-09T07:25:02.178Z,63
2024-05-09T07:26:01.935Z,64
2024-05-09T07:27:02.381Z,64
2024-05-09T07:28:02.360Z,62
2024-05-09T07:29:02.221Z,61
2024-05-09T07:30:05.458Z,62
2024-05-09T07:31:01.849Z,63
2024-05-09T07:32:01.996Z,64
2024-05-09T07:33:03.730Z,66
2024-05-09T07:34:02.621Z,65
2024-05-09T07:35:02.562Z,63
2024-05-09T07:36:02.567Z,65
2024-05-09T07:37:02.360Z,64
2024-05-09T07:38:02.350Z,63
2024-05-09T07:39:02.308Z,64
2024-05-09T07:40:01.964Z,63
2024-05-09T07:41:02.367Z,63
2024-05-09T07:42:02.792Z,64
2024-05-09T07:43:01.455Z,62
2024-05-09T07:44:02.373Z,62
2024-05-09T07:45:40.392Z,61
2024-05-09T07:47:52.547Z,62
2024-05-09T07:49:45.177Z,60
2024-05-09T07:52:32.459Z,61
2024-05-09T07:53:36.713Z,60
2024-05-09T07:53:39.736Z,60
2024-05-09T07:53:43.136Z,61
2024-05-09T07:55:03.212Z,58
2024-05-09T07:56:02.780Z,58
2024-05-09T07:57:02.207Z,60
2024-05-09T07:58:02.347Z,59
2024-05-09T07:59:02.414Z,59
2024-05-09T08:00:02.117Z,61
2024-05-09T08:01:02.091Z,60
2024-05-09T08:02:02.093Z,60
2024-05-09T08:03:02.359Z,58
2024-05-09T08:04:02.377Z,58
2024-05-09T08:05:01.875Z,57
2024-05-09T08:06:01.899Z,58
2024-05-09T08:07:02.039Z,59
2024-05-09T08:08:01.803Z,58
2024-05-09T08:09:11.040Z,59
2024-05-09T08:10:01.713Z,59
2024-05-09T08:11:01.661Z,58
2024-05-09T08:12:02.458Z,58
2024-05-09T08:13:02.573Z,59
2024-05-09T08:14:02.361Z,56
2024-05-09T08:15:02.392Z,55
2024-05-09T08:16:02.347Z,58
2024-05-09T08:18:03.071Z,57
2024-05-09T08:19:02.278Z,56
2024-05-09T08:20:05.627Z,58
2024-05-09T08:21:01.756Z,58
2024-05-09T08:22:01.645Z,55
2024-05-09T08:23:01.490Z,55
2024-05-09T08:24:02.572Z,55
2024-05-09T08:25:01.492Z,54
2024-05-09T08:26:02.391Z,54
2024-05-09T08:27:02.270Z,53
2024-05-09T08:28:02.207Z,56
2024-05-09T08:29:01.962Z,56
2024-05-09T08:30:01.989Z,57
2024-05-09T08:31:07.034Z,55
2024-05-09T08:32:03.178Z,56
2024-05-09T08:33:02.030Z,54
2024-05-09T08:34:02.481Z,52
2024-05-09T08:35:01.537Z,54
2024-05-09T08:36:02.784Z,55
2024-05-09T08:37:13.112Z,52
2024-05-09T08:38:02.315Z,53
2024-05-09T08:39:01.702Z,54
2024-05-09T08:40:05.215Z,53
2024-05-09T08:41:01.610Z,53
2024-05-09T08:42:02.447Z,54
2024-05-09T08:43:02.444Z,53
2024-05-09T08:44:01.817Z,55
2024-05-09T08:45:01.631Z,52
2024-05-09T08:46:02.924Z,53
2024-05-09T08:48:02.594Z,53
2024-05-09T08:49:02.067Z,52
2024-05-09T08:50:02.574Z,52
2024-05-09T08:51:01.710Z,51
2024-05-09T08:52:02.472Z,52
2024-05-09T08:53:02.440Z,52
2024-05-09T08:54:02.575Z,51
2024-05-09T08:55:02.357Z,51
2024-05-09T08:56:02.356Z,50
2024-05-09T08:57:02.180Z,51
2024-05-09T08:58:02.052Z,51
2024-05-09T08:59:01.990Z,50
2024-05-09T09:00:02.722Z,50
2024-05-09T09:01:02.615Z,50
2024-05-09T09:03:02.515Z,50
2024-05-09T09:04:02.631Z,49
2024-05-09T09:05:01.833Z,50
2024-05-09T09:06:01.979Z,50
2024-05-09T09:07:04.069Z,49
2024-05-09T09:08:01.877Z,51
2024-05-09T09:09:02.345Z,50
2024-05-09T09:10:03.257Z,51
2024-05-09T09:11:01.946Z,50
2024-05-09T09:12:01.933Z,49
2024-05-09T09:13:01.819Z,50
2024-05-09T09:14:01.693Z,51
2024-05-09T09:15:01.554Z,48
2024-05-09T09:16:02.605Z,47
2024-05-09T09:17:02.334Z,47
2024-05-09T09:18:02.467Z,47
2024-05-09T09:19:02.831Z,48
2024-05-09T09:20:02.099Z,49
2024-05-09T09:21:02.610Z,48
2024-05-09T09:22:02.508Z,47
2024-05-09T09:23:02.908Z,48
2024-05-09T09:24:01.674Z,50
2024-05-09T09:25:02.029Z,47
2024-05-09T09:26:02.024Z,46
2024-05-09T09:27:01.967Z,47
2024-05-09T09:28:01.839Z,49
2024-05-09T09:29:01.710Z,48
2024-05-09T09:30:02.487Z,48
2024-05-09T09:31:02.278Z,49
2024-05-09T09:32:02.330Z,48
2024-05-09T09:33:02.831Z,49
2024-05-09T09:34:02.266Z,47
2024-05-09T09:35:02.518Z,47
2024-05-09T09:36:02.350Z,46
2024-05-09T09:37:02.567Z,47
2024-05-09T09:38:02.615Z,47
2024-05-09T09:39:01.931Z,47
2024-05-09T09:40:01.834Z,47
2024-05-09T09:41:02.214Z,44
2024-05-09T09:42:02.229Z,42
2024-05-09T09:43:02.455Z,45
2024-05-09T09:44:02.374Z,44
2024-05-09T09:45:06.084Z,45
2024-05-09T09:46:01.946Z,45
2024-05-09T09:47:02.365Z,45
2024-05-09T09:48:02.453Z,45
2024-05-09T09:49:03.034Z,46
2024-05-09T09:50:03.080Z,44
2024-05-09T09:51:02.270Z,44
2024-05-09T09:52:02.133Z,44
2024-05-09T09:53:02.032Z,44
2024-05-09T09:54:01.898Z,45
2024-05-09T09:55:02.436Z,44
2024-05-09T09:56:03.115Z,45
2024-05-09T09:57:01.779Z,44
2024-05-09T09:58:02.033Z,44
2024-05-09T09:59:01.860Z,43
2024-05-09T10:00:09.514Z,43
2024-05-09T10:01:02.242Z,44
2024-05-09T10:02:02.018Z,46
2024-05-09T10:03:02.526Z,44
2024-05-09T10:04:02.977Z,45
2024-05-09T10:05:02.343Z,44
2024-05-09T10:06:02.481Z,44
2024-05-09T10:07:02.477Z,44
2024-05-09T10:08:02.934Z,44
2024-05-09T10:09:01.624Z,44
2024-05-09T10:10:04.124Z,44
2024-05-09T10:11:01.861Z,43
2024-05-09T10:12:02.036Z,45
2024-05-09T10:13:02.120Z,43
2024-05-09T10:14:02.225Z,43
2024-05-09T10:15:02.494Z,43
2024-05-09T10:16:02.237Z,43
2024-05-09T10:18:03.010Z,45
2024-05-09T10:19:02.307Z,43
2024-05-09T10:20:05.427Z,43
2024-05-09T10:21:01.698Z,44
2024-05-09T10:22:02.641Z,43
2024-05-09T10:23:02.446Z,43
2024-05-09T10:24:02.290Z,42
2024-05-09T10:25:05.578Z,41
2024-05-09T10:26:01.885Z,42
2024-05-09T10:27:01.797Z,41
2024-05-09T10:28:02.871Z,44
2024-05-09T10:29:01.729Z,42
2024-05-09T10:30:09.062Z,44
2024-05-09T10:31:02.076Z,43
2024-05-09T10:32:01.893Z,44
2024-05-09T10:33:02.145Z,43
2024-05-09T10:34:03.172Z,45
2024-05-09T10:35:02.144Z,42
2024-05-09T10:36:02.478Z,41
2024-05-09T10:37:05.205Z,43
2024-05-09T10:38:02.243Z,42
2024-05-09T10:39:02.397Z,44
2024-05-09T10:40:02.655Z,43
2024-05-09T10:41:02.190Z,41
2024-05-09T10:42:02.792Z,43
2024-05-09T10:43:06.529Z,42
2024-05-09T10:44:02.363Z,42
2024-05-09T10:45:02.539Z,42
2024-05-09T10:46:02.398Z,42
2024-05-09T10:47:02.111Z,43
2024-05-09T10:48:02.532Z,43
2024-05-09T10:49:07.849Z,40
2024-05-09T10:50:02.109Z,41
2024-05-09T10:51:02.130Z,42
2024-05-09T10:52:01.941Z,40
2024-05-09T10:53:01.944Z,39
2024-05-09T10:54:01.784Z,41
2024-05-09T10:55:06.200Z,41
2024-05-09T10:56:02.057Z,39
2024-05-09T10:57:02.330Z,40
2024-05-09T10:58:02.013Z,39
2024-05-09T10:59:02.168Z,38
2024-05-09T11:00:06.232Z,39
2024-05-09T11:01:07.230Z,39
2024-05-09T11:03:01.852Z,39
2024-05-09T11:04:02.143Z,38
2024-05-09T11:05:02.807Z,39
2024-05-09T11:06:02.006Z,40
2024-05-09T11:07:05.717Z,40
2024-05-09T11:08:01.552Z,41
2024-05-09T11:09:01.776Z,39
2024-05-09T11:10:01.587Z,42
2024-05-09T11:11:01.929Z,40
2024-05-09T11:12:01.809Z,40
2024-05-09T11:13:01.944Z,40
2024-05-09T11:14:01.832Z,40
2024-05-09T11:15:02.563Z,40
2024-05-09T11:16:02.382Z,40
2024-05-09T11:18:02.761Z,41
2024-05-09T11:19:01.982Z,41
2024-05-09T11:20:04.607Z,40
2024-05-09T11:21:02.545Z,40
2024-05-09T11:22:02.555Z,41
2024-05-09T11:23:01.508Z,40
2024-05-09T11:24:02.637Z,41
2024-05-09T11:25:02.451Z,42
2024-05-09T11:26:03.100Z,40
2024-05-09T11:27:01.859Z,40
2024-05-09T11:28:01.906Z,39
2024-05-09T11:29:01.818Z,41
2024-05-09T11:30:01.762Z,41
2024-05-09T11:31:01.707Z,41
2024-05-09T11:32:02.059Z,41
2024-05-09T11:33:02.666Z,41
2024-05-09T11:34:01.551Z,42
2024-05-09T11:35:01.529Z,41
2024-05-09T11:36:02.452Z,42
2024-05-09T11:37:02.499Z,42
2024-05-09T11:38:02.383Z,42
2024-05-09T11:39:02.278Z,43
2024-05-09T11:40:03.309Z,43
2024-05-09T11:41:01.671Z,42
2024-05-09T11:42:03.046Z,42
2024-05-09T11:43:02.042Z,43
2024-05-09T11:44:02.039Z,42
2024-05-09T11:45:01.917Z,43
2024-05-09T11:46:01.724Z,43
2024-05-09T11:47:01.574Z,43
2024-05-09T11:48:03.015Z,43
2024-05-09T11:49:02.688Z,42
2024-05-09T11:50:07.962Z,42
2024-05-09T11:51:02.387Z,42
2024-05-09T11:52:02.294Z,41
2024-05-09T11:53:02.376Z,40
2024-05-09T11:54:02.068Z,40
2024-05-09T11:55:02.312Z,41
2024-05-09T11:56:02.511Z,41
2024-05-09T11:57:01.504Z,41
2024-05-09T11:58:02.541Z,42
2024-05-09T11:59:02.378Z,40
2024-05-09T12:00:07.318Z,41
2024-05-09T12:01:03.142Z,40
2024-05-09T12:02:02.647Z,41
2024-05-09T12:03:01.773Z,40
2024-05-09T12:04:02.254Z,40
2024-05-09T12:05:02.078Z,39
2024-05-09T12:06:02.451Z,40
2024-05-09T12:07:02.127Z,40
2024-05-09T12:08:02.227Z,39
2024-05-09T12:09:02.403Z,39
2024-05-09T12:10:02.352Z,40
2024-05-09T12:11:03.396Z,40
2024-05-09T12:12:02.364Z,39
2024-05-09T12:13:06.639Z,39
2024-05-09T12:14:01.676Z,40
2024-05-09T12:15:02.144Z,39
2024-05-09T12:16:02.628Z,40
2024-05-09T12:17:01.784Z,40
2024-05-09T12:18:04.674Z,40
2024-05-09T12:19:02.341Z,39
2024-05-09T12:20:03.262Z,39
2024-05-09T12:21:01.545Z,38
2024-05-09T12:22:02.819Z,40
2024-05-09T12:23:01.607Z,39
2024-05-09T12:24:02.750Z,39
2024-05-09T12:25:02.512Z,40
2024-05-09T12:26:02.304Z,40
2024-05-09T12:27:02.277Z,39
2024-05-09T12:28:02.676Z,38
2024-05-09T12:29:01.654Z,38
2024-05-09T12:30:03.332Z,40
2024-05-09T12:32:02.154Z,40
2024-05-09T12:33:02.094Z,38
2024-05-09T12:34:02.413Z,40
2024-05-09T12:35:02.986Z,37
2024-05-09T12:36:01.702Z,38
2024-05-09T12:37:02.335Z,38
2024-05-09T12:38:02.414Z,38
2024-05-09T12:39:02.283Z,39
2024-05-09T12:40:03.953Z,37
2024-05-09T12:41:02.589Z,38
2024-05-09T12:42:02.393Z,37
2024-05-09T12:43:02.818Z,39
2024-05-09T12:44:01.630Z,37
2024-05-09T12:45:02.285Z,37
2024-05-09T12:46:02.812Z,38
2024-05-09T12:47:01.534Z,39
2024-05-09T12:48:02.508Z,39
2024-05-09T12:49:02.982Z,37
2024-05-09T12:50:03.985Z,38
2024-05-09T12:51:02.266Z,36
2024-05-09T12:52:02.249Z,37
2024-05-09T12:53:04.354Z,37
2024-05-09T12:54:01.964Z,38
2024-05-09T12:55:02.424Z,38
2024-05-09T12:56:05.955Z,39
2024-05-09T12:57:01.849Z,36
2024-05-09T12:58:01.769Z,36
2024-05-09T12:59:01.560Z,37
2024-05-09T13:00:05.673Z,36
2024-05-09T13:02:02.631Z,37
2024-05-09T13:03:02.953Z,37
2024-05-09T13:04:02.786Z,37
2024-05-09T13:05:02.743Z,36
2024-05-09T13:06:02.077Z,36
2024-05-09T13:07:06.441Z,36
2024-05-09T13:08:01.697Z,36
2024-05-09T13:09:01.874Z,35
2024-05-09T13:10:01.683Z,37
2024-05-09T13:11:02.029Z,35
2024-05-09T13:12:01.880Z,36
2024-05-09T13:13:02.611Z,37
2024-05-09T13:14:01.511Z,36
2024-05-09T13:15:01.576Z,37
2024-05-09T13:16:02.580Z,35
2024-05-09T13:17:01.627Z,36
2024-05-09T13:18:04.180Z,35
2024-05-09T13:19:02.284Z,34
2024-05-09T13:20:05.666Z,35
2024-05-09T13:21:02.283Z,36
2024-05-09T13:22:02.186Z,35
2024-05-09T13:23:02.310Z,35
2024-05-09T13:24:02.364Z,35
2024-05-09T13:25:02.492Z,35
2024-05-09T13:26:02.326Z,36
2024-05-09T13:27:02.286Z,37
2024-05-09T13:28:02.463Z,36
2024-05-09T13:29:02.401Z,36
2024-05-09T13:30:02.077Z,36
2024-05-09T13:31:02.241Z,36
2024-05-09T13:32:02.338Z,37
2024-05-09T13:33:02.631Z,38
2024-05-09T13:34:01.986Z,37
2024-05-09T13:35:02.476Z,37
2024-05-09T13:36:02.184Z,36
2024-05-09T13:37:02.440Z,38
2024-05-09T13:38:02.207Z,37
2024-05-09T13:39:02.699Z,37
2024-05-09T13:40:02.802Z,38
2024-05-09T13:41:02.447Z,39
2024-05-09T13:42:02.129Z,38
2024-05-09T13:43:02.826Z,38
2024-05-09T13:44:01.923Z,38
2024-05-09T13:45:02.636Z,37
2024-05-09T13:47:01.909Z,38
2024-05-09T13:48:01.906Z,38
2024-05-09T13:49:01.801Z,38
2024-05-09T13:50:03.865Z,38
2024-05-09T13:51:01.858Z,39
2024-05-09T13:52:01.815Z,39
2024-05-09T13:53:02.015Z,38
2024-05-09T13:54:02.068Z,38
2024-05-09T13:55:02.743Z,39
2024-05-09T13:56:01.623Z,39
2024-05-09T13:57:01.895Z,38
2024-05-09T13:58:01.879Z,39
2024-05-09T13:59:01.911Z,39
2024-05-09T14:00:05.264Z,39
2024-05-09T14:02:02.051Z,41
2024-05-09T14:03:02.482Z,40
2024-05-09T14:04:01.882Z,38
2024-05-09T14:05:02.473Z,39
2024-05-09T14:06:01.747Z,40
2024-05-09T14:07:01.997Z,40
2024-05-09T14:08:01.801Z,40
2024-05-09T14:09:01.954Z,40
2024-05-09T14:10:01.835Z,38
2024-05-09T14:11:02.585Z,38
2024-05-09T14:12:01.500Z,38
2024-05-09T14:13:02.385Z,40
2024-05-09T14:14:02.697Z,39
2024-05-09T14:15:01.482Z,39
2024-05-09T14:16:02.212Z,39
2024-05-09T14:17:02.804Z,39
2024-05-09T14:18:01.772Z,39
2024-05-09T14:19:02.142Z,39
2024-05-09T14:20:02.038Z,39
2024-05-09T14:21:02.319Z,39
2024-05-09T14:22:02.218Z,40
2024-05-09T14:23:02.004Z,39
2024-05-09T14:24:01.889Z,40
2024-05-09T14:25:02.504Z,40
2024-05-09T14:26:02.404Z,40